sensor_id;sensor_type;location;lat;lon;timestamp;temperature;humidity
582;DHT22;277;50.074;8.436;2022-11-20T00:00:21;2.60;99.90
582;DHT22;277;50.074;8.436;2022-11-20T00:02:48;2.70;99.90
582;DHT22;277;50.074;8.436;2022-11-20T00:05:16;3.20;99.90
582;DHT22;277;50.074;8.436;2022-11-20T00:07:46;3.30;99.90
582;DHT22;277;50.074;8.436;2022-11-20T00:10:14;3.50;99.90
582;DHT22;277;50.074;8.436;2022-11-20T00:12:41;3.50;99.90
582;DHT22;277;50.074;8.436;2022-11-20T00:15:09;3.60;99.90
582;DHT22;277;50.074;8.436;2022-11-20T00:17:37;3.70;99.90
582;DHT22;277;50.074;8.436;2022-11-20T00:20:05;3.90;99.90
582;DHT22;277;50.074;8.436;2022-11-20T00:22:33;4.10;99.90
582;DHT22;277;50.074;8.436;2022-11-20T00:25:02;4.20;99.90
582;DHT22;277;50.074;8.436;2022-11-20T00:27:30;4.40;99.90
582;DHT22;277;50.074;8.436;2022-11-20T00:29:57;4.40;99.90
582;DHT22;277;50.074;8.436;2022-11-20T00:32:25;4.50;99.90
582;DHT22;277;50.074;8.436;2022-11-20T00:34:53;4.60;99.90
582;DHT22;277;50.074;8.436;2022-11-20T00:37:21;4.60;99.90
582;DHT22;277;50.074;8.436;2022-11-20T00:39:48;4.60;99.90
582;DHT22;277;50.074;8.436;2022-11-20T00:42:17;4.60;99.90
582;DHT22;277;50.074;8.436;2022-11-20T00:44:45;4.70;99.90
582;DHT22;277;50.074;8.436;2022-11-20T00:47:13;4.80;99.90
582;DHT22;277;50.074;8.436;2022-11-20T00:49:40;4.90;99.90
582;DHT22;277;50.074;8.436;2022-11-20T00:52:08;4.90;99.90
582;DHT22;277;50.074;8.436;2022-11-20T00:54:36;4.90;99.90
582;DHT22;277;50.074;8.436;2022-11-20T00:57:03;4.90;99.90
582;DHT22;277;50.074;8.436;2022-11-20T00:59:32;4.70;99.90
582;DHT22;277;50.074;8.436;2022-11-20T01:02:00;4.60;99.90
582;DHT22;277;50.074;8.436;2022-11-20T01:04:28;4.30;99.90
582;DHT22;277;50.074;8.436;2022-11-20T01:06:56;3.90;99.90
582;DHT22;277;50.074;8.436;2022-11-20T01:09:23;4.00;99.90
582;DHT22;277;50.074;8.436;2022-11-20T01:11:51;4.20;99.90
582;DHT22;277;50.074;8.436;2022-11-20T01:14:19;4.30;99.90
582;DHT22;277;50.074;8.436;2022-11-20T01:16:49;4.40;99.90
582;DHT22;277;50.074;8.436;2022-11-20T01:19:18;4.60;99.90
582;DHT22;277;50.074;8.436;2022-11-20T01:21:47;4.70;99.90
582;DHT22;277;50.074;8.436;2022-11-20T01:24:16;4.80;99.90
582;DHT22;277;50.074;8.436;2022-11-20T01:26:46;4.90;99.90
582;DHT22;277;50.074;8.436;2022-11-20T01:29:14;4.90;99.90
582;DHT22;277;50.074;8.436;2022-11-20T01:31:43;4.90;99.90
582;DHT22;277;50.074;8.436;2022-11-20T01:34:13;5.00;99.90
582;DHT22;277;50.074;8.436;2022-11-20T01:36:41;5.00;99.90
582;DHT22;277;50.074;8.436;2022-11-20T01:39:10;5.00;99.90
582;DHT22;277;50.074;8.436;2022-11-20T01:41:38;5.00;99.90
582;DHT22;277;50.074;8.436;2022-11-20T01:47:06;5.10;99.90
582;DHT22;277;50.074;8.436;2022-11-20T01:49:37;5.20;99.90
582;DHT22;277;50.074;8.436;2022-11-20T01:52:07;5.20;99.90
582;DHT22;277;50.074;8.436;2022-11-20T01:54:38;5.30;99.90
582;DHT22;277;50.074;8.436;2022-11-20T01:57:08;5.30;99.90
582;DHT22;277;50.074;8.436;2022-11-20T01:59:37;5.10;99.90
582;DHT22;277;50.074;8.436;2022-11-20T02:02:07;5.00;99.90
582;DHT22;277;50.074;8.436;2022-11-20T02:04:35;5.00;99.90
582;DHT22;277;50.074;8.436;2022-11-20T02:07:04;5.10;99.90
582;DHT22;277;50.074;8.436;2022-11-20T02:09:32;4.90;99.90
582;DHT22;277;50.074;8.436;2022-11-20T02:11:59;4.60;99.90
582;DHT22;277;50.074;8.436;2022-11-20T02:14:27;4.80;99.90
582;DHT22;277;50.074;8.436;2022-11-20T02:16:54;4.90;99.90
582;DHT22;277;50.074;8.436;2022-11-20T02:19:23;4.80;99.90
582;DHT22;277;50.074;8.436;2022-11-20T02:21:54;4.90;99.90
582;DHT22;277;50.074;8.436;2022-11-20T02:24:25;4.90;99.90
582;DHT22;277;50.074;8.436;2022-11-20T02:26:53;5.00;99.90
582;DHT22;277;50.074;8.436;2022-11-20T02:29:23;5.00;99.90
582;DHT22;277;50.074;8.436;2022-11-20T02:31:59;4.90;99.90
582;DHT22;277;50.074;8.436;2022-11-20T02:34:27;4.80;99.90
582;DHT22;277;50.074;8.436;2022-11-20T02:36:55;4.80;99.90
582;DHT22;277;50.074;8.436;2022-11-20T02:39:25;4.80;99.90
582;DHT22;277;50.074;8.436;2022-11-20T02:41:54;4.80;99.90
582;DHT22;277;50.074;8.436;2022-11-20T02:44:23;4.80;99.90
582;DHT22;277;50.074;8.436;2022-11-20T02:46:51;4.90;99.90
582;DHT22;277;50.074;8.436;2022-11-20T02:49:18;5.00;99.90
582;DHT22;277;50.074;8.436;2022-11-20T02:51:47;5.10;99.90
582;DHT22;277;50.074;8.436;2022-11-20T02:54:14;5.00;99.90
582;DHT22;277;50.074;8.436;2022-11-20T02:56:43;5.00;99.90
582;DHT22;277;50.074;8.436;2022-11-20T02:59:11;5.00;99.90
582;DHT22;277;50.074;8.436;2022-11-20T03:01:39;4.60;99.90
582;DHT22;277;50.074;8.436;2022-11-20T03:04:06;4.70;99.90
582;DHT22;277;50.074;8.436;2022-11-20T03:06:34;4.80;99.90
582;DHT22;277;50.074;8.436;2022-11-20T03:09:02;4.90;99.90
582;DHT22;277;50.074;8.436;2022-11-20T03:11:30;5.00;99.90
582;DHT22;277;50.074;8.436;2022-11-20T03:14:02;5.10;99.90
582;DHT22;277;50.074;8.436;2022-11-20T03:16:30;5.20;99.90
582;DHT22;277;50.074;8.436;2022-11-20T03:18:58;5.30;99.90
582;DHT22;277;50.074;8.436;2022-11-20T03:21:26;5.30;99.90
582;DHT22;277;50.074;8.436;2022-11-20T03:23:53;5.30;99.90
582;DHT22;277;50.074;8.436;2022-11-20T03:26:23;5.30;99.90
582;DHT22;277;50.074;8.436;2022-11-20T03:28:51;5.40;99.90
582;DHT22;277;50.074;8.436;2022-11-20T03:31:22;5.30;99.90
582;DHT22;277;50.074;8.436;2022-11-20T03:33:50;5.10;99.90
582;DHT22;277;50.074;8.436;2022-11-20T03:36:18;5.00;99.90
582;DHT22;277;50.074;8.436;2022-11-20T03:38:46;5.10;99.90
582;DHT22;277;50.074;8.436;2022-11-20T03:41:14;5.20;99.90
582;DHT22;277;50.074;8.436;2022-11-20T03:43:46;5.20;99.90
582;DHT22;277;50.074;8.436;2022-11-20T03:46:13;5.20;99.90
582;DHT22;277;50.074;8.436;2022-11-20T03:48:43;5.30;99.90
582;DHT22;277;50.074;8.436;2022-11-20T03:51:18;5.00;99.90
582;DHT22;277;50.074;8.436;2022-11-20T03:53:46;4.80;99.90
582;DHT22;277;50.074;8.436;2022-11-20T03:56:15;4.80;99.90
582;DHT22;277;50.074;8.436;2022-11-20T03:58:43;5.00;99.90
582;DHT22;277;50.074;8.436;2022-11-20T04:01:12;5.00;99.90
582;DHT22;277;50.074;8.436;2022-11-20T04:03:40;5.00;99.90
582;DHT22;277;50.074;8.436;2022-11-20T04:06:11;5.00;99.90
582;DHT22;277;50.074;8.436;2022-11-20T04:08:39;4.90;99.90
582;DHT22;277;50.074;8.436;2022-11-20T04:11:08;5.00;99.90
582;DHT22;277;50.074;8.436;2022-11-20T04:13:36;5.00;99.90
582;DHT22;277;50.074;8.436;2022-11-20T04:16:03;5.00;99.90
582;DHT22;277;50.074;8.436;2022-11-20T04:18:31;5.00;99.90
582;DHT22;277;50.074;8.436;2022-11-20T04:20:59;5.00;99.90
582;DHT22;277;50.074;8.436;2022-11-20T04:23:28;5.10;99.90
582;DHT22;277;50.074;8.436;2022-11-20T04:26:00;5.10;99.90
582;DHT22;277;50.074;8.436;2022-11-20T04:28:28;5.00;99.90
582;DHT22;277;50.074;8.436;2022-11-20T04:31:01;4.90;99.90
582;DHT22;277;50.074;8.436;2022-11-20T04:33:29;4.80;99.90
582;DHT22;277;50.074;8.436;2022-11-20T04:36:00;4.60;99.90
582;DHT22;277;50.074;8.436;2022-11-20T04:38:30;4.60;99.90
582;DHT22;277;50.074;8.436;2022-11-20T04:40:58;4.40;99.90
582;DHT22;277;50.074;8.436;2022-11-20T04:43:26;4.20;99.90
582;DHT22;277;50.074;8.436;2022-11-20T04:45:55;4.30;99.90
582;DHT22;277;50.074;8.436;2022-11-20T04:48:23;4.50;99.90
582;DHT22;277;50.074;8.436;2022-11-20T04:50:51;4.60;99.90
582;DHT22;277;50.074;8.436;2022-11-20T04:53:19;4.80;99.90
582;DHT22;277;50.074;8.436;2022-11-20T04:55:48;5.00;99.90
582;DHT22;277;50.074;8.436;2022-11-20T04:58:16;4.90;99.90
582;DHT22;277;50.074;8.436;2022-11-20T05:00:43;5.10;99.90
582;DHT22;277;50.074;8.436;2022-11-20T05:03:11;5.20;99.90
582;DHT22;277;50.074;8.436;2022-11-20T05:05:39;5.30;99.90
582;DHT22;277;50.074;8.436;2022-11-20T05:08:06;5.10;99.90
582;DHT22;277;50.074;8.436;2022-11-20T05:10:34;5.20;99.90
582;DHT22;277;50.074;8.436;2022-11-20T05:13:03;5.20;99.90
582;DHT22;277;50.074;8.436;2022-11-20T05:15:31;5.10;99.90
582;DHT22;277;50.074;8.436;2022-11-20T05:17:59;5.00;99.90
582;DHT22;277;50.074;8.436;2022-11-20T05:20:27;5.10;99.90
582;DHT22;277;50.074;8.436;2022-11-20T05:22:56;5.20;99.90
582;DHT22;277;50.074;8.436;2022-11-20T05:25:23;5.20;99.90
582;DHT22;277;50.074;8.436;2022-11-20T05:27:51;5.10;99.90
582;DHT22;277;50.074;8.436;2022-11-20T05:30:21;5.10;99.90
582;DHT22;277;50.074;8.436;2022-11-20T05:32:49;5.10;99.90
582;DHT22;277;50.074;8.436;2022-11-20T05:35:17;5.20;99.90
582;DHT22;277;50.074;8.436;2022-11-20T05:37:44;5.30;99.90
582;DHT22;277;50.074;8.436;2022-11-20T05:40:12;5.30;99.90
582;DHT22;277;50.074;8.436;2022-11-20T05:42:40;5.30;99.90
582;DHT22;277;50.074;8.436;2022-11-20T05:45:10;5.40;99.90
582;DHT22;277;50.074;8.436;2022-11-20T05:47:39;5.50;99.90
582;DHT22;277;50.074;8.436;2022-11-20T05:50:07;5.60;99.90
582;DHT22;277;50.074;8.436;2022-11-20T05:52:34;5.50;99.90
582;DHT22;277;50.074;8.436;2022-11-20T05:55:02;5.40;99.90
582;DHT22;277;50.074;8.436;2022-11-20T05:57:30;5.30;99.90
582;DHT22;277;50.074;8.436;2022-11-20T05:59:58;5.30;99.90
582;DHT22;277;50.074;8.436;2022-11-20T06:02:25;5.40;99.90
582;DHT22;277;50.074;8.436;2022-11-20T06:04:55;5.50;99.90
582;DHT22;277;50.074;8.436;2022-11-20T06:07:22;5.40;99.90
582;DHT22;277;50.074;8.436;2022-11-20T06:09:50;5.40;99.90
582;DHT22;277;50.074;8.436;2022-11-20T06:12:18;5.50;99.90
582;DHT22;277;50.074;8.436;2022-11-20T06:14:45;5.40;99.90
582;DHT22;277;50.074;8.436;2022-11-20T06:17:13;5.40;99.90
582;DHT22;277;50.074;8.436;2022-11-20T06:19:41;5.40;99.90
582;DHT22;277;50.074;8.436;2022-11-20T06:22:10;5.50;99.90
582;DHT22;277;50.074;8.436;2022-11-20T06:24:37;5.40;99.90
582;DHT22;277;50.074;8.436;2022-11-20T06:27:05;5.50;99.90
582;DHT22;277;50.074;8.436;2022-11-20T06:29:33;5.60;99.90
582;DHT22;277;50.074;8.436;2022-11-20T06:32:01;5.60;99.90
582;DHT22;277;50.074;8.436;2022-11-20T06:34:28;5.60;99.90
582;DHT22;277;50.074;8.436;2022-11-20T06:36:56;5.60;99.90
582;DHT22;277;50.074;8.436;2022-11-20T06:39:25;5.50;99.90
582;DHT22;277;50.074;8.436;2022-11-20T06:41:53;5.50;99.90
582;DHT22;277;50.074;8.436;2022-11-20T06:44:24;5.50;99.90
582;DHT22;277;50.074;8.436;2022-11-20T06:46:52;5.40;99.90
582;DHT22;277;50.074;8.436;2022-11-20T06:49:20;5.40;99.90
582;DHT22;277;50.074;8.436;2022-11-20T06:51:48;5.30;99.90
582;DHT22;277;50.074;8.436;2022-11-20T06:54:15;5.20;99.90
582;DHT22;277;50.074;8.436;2022-11-20T06:56:47;5.30;99.90
582;DHT22;277;50.074;8.436;2022-11-20T06:59:15;5.30;99.90
582;DHT22;277;50.074;8.436;2022-11-20T07:01:43;5.40;99.90
582;DHT22;277;50.074;8.436;2022-11-20T07:04:10;5.40;99.90
582;DHT22;277;50.074;8.436;2022-11-20T07:06:38;5.40;99.90
582;DHT22;277;50.074;8.436;2022-11-20T07:09:06;5.20;99.90
582;DHT22;277;50.074;8.436;2022-11-20T07:11:38;5.20;99.90
582;DHT22;277;50.074;8.436;2022-11-20T07:14:07;5.30;99.90
582;DHT22;277;50.074;8.436;2022-11-20T07:16:35;5.30;99.90
582;DHT22;277;50.074;8.436;2022-11-20T07:19:02;5.50;99.90
582;DHT22;277;50.074;8.436;2022-11-20T07:21:30;5.50;99.90
582;DHT22;277;50.074;8.436;2022-11-20T07:23:58;5.60;99.90
582;DHT22;277;50.074;8.436;2022-11-20T07:26:26;5.60;99.90
582;DHT22;277;50.074;8.436;2022-11-20T07:28:53;5.50;99.90
582;DHT22;277;50.074;8.436;2022-11-20T07:31:23;5.40;99.90
582;DHT22;277;50.074;8.436;2022-11-20T07:33:50;5.40;99.90
582;DHT22;277;50.074;8.436;2022-11-20T07:36:18;5.50;99.90
582;DHT22;277;50.074;8.436;2022-11-20T07:38:46;5.50;99.90
582;DHT22;277;50.074;8.436;2022-11-20T07:41:14;5.70;99.90
582;DHT22;277;50.074;8.436;2022-11-20T07:43:42;5.70;99.90
582;DHT22;277;50.074;8.436;2022-11-20T07:46:09;5.80;99.90
582;DHT22;277;50.074;8.436;2022-11-20T07:48:39;5.90;99.90
582;DHT22;277;50.074;8.436;2022-11-20T07:51:07;5.40;99.90
582;DHT22;277;50.074;8.436;2022-11-20T07:53:35;5.10;99.90
582;DHT22;277;50.074;8.436;2022-11-20T07:56:02;5.00;99.90
582;DHT22;277;50.074;8.436;2022-11-20T07:58:31;4.70;99.90
582;DHT22;277;50.074;8.436;2022-11-20T08:01:04;4.40;99.90
582;DHT22;277;50.074;8.436;2022-11-20T08:03:31;4.30;99.90
582;DHT22;277;50.074;8.436;2022-11-20T08:06:01;4.20;99.90
582;DHT22;277;50.074;8.436;2022-11-20T08:08:29;4.20;99.90
582;DHT22;277;50.074;8.436;2022-11-20T08:11:00;4.00;99.90
582;DHT22;277;50.074;8.436;2022-11-20T08:13:41;3.90;99.90
582;DHT22;277;50.074;8.436;2022-11-20T08:16:27;3.80;99.90
582;DHT22;277;50.074;8.436;2022-11-20T08:18:54;3.80;99.90
582;DHT22;277;50.074;8.436;2022-11-20T08:21:24;3.70;99.90
582;DHT22;277;50.074;8.436;2022-11-20T08:23:51;3.60;99.90
582;DHT22;277;50.074;8.436;2022-11-20T08:26:20;3.60;99.90
582;DHT22;277;50.074;8.436;2022-11-20T08:28:48;3.60;99.90
582;DHT22;277;50.074;8.436;2022-11-20T08:31:15;3.60;99.90
582;DHT22;277;50.074;8.436;2022-11-20T08:33:43;3.60;99.90
582;DHT22;277;50.074;8.436;2022-11-20T08:36:11;3.60;99.90
582;DHT22;277;50.074;8.436;2022-11-20T08:38:40;3.70;99.90
582;DHT22;277;50.074;8.436;2022-11-20T08:41:08;3.80;99.90
582;DHT22;277;50.074;8.436;2022-11-20T08:43:55;4.00;99.90
582;DHT22;277;50.074;8.436;2022-11-20T08:46:23;4.00;99.90
582;DHT22;277;50.074;8.436;2022-11-20T08:48:51;4.10;99.90
582;DHT22;277;50.074;8.436;2022-11-20T08:51:19;4.10;99.90
582;DHT22;277;50.074;8.436;2022-11-20T08:53:49;4.10;99.90
582;DHT22;277;50.074;8.436;2022-11-20T08:56:16;4.20;99.90
582;DHT22;277;50.074;8.436;2022-11-20T08:58:44;4.30;99.90
582;DHT22;277;50.074;8.436;2022-11-20T09:01:32;4.40;99.90
582;DHT22;277;50.074;8.436;2022-11-20T09:03:59;4.50;99.90
582;DHT22;277;50.074;8.436;2022-11-20T09:06:27;4.40;99.90
582;DHT22;277;50.074;8.436;2022-11-20T09:08:56;4.50;99.90
582;DHT22;277;50.074;8.436;2022-11-20T09:11:31;4.50;99.90
582;DHT22;277;50.074;8.436;2022-11-20T09:13:59;4.50;99.90
582;DHT22;277;50.074;8.436;2022-11-20T09:16:29;4.50;99.90
582;DHT22;277;50.074;8.436;2022-11-20T09:18:56;4.40;99.90
582;DHT22;277;50.074;8.436;2022-11-20T09:21:44;4.60;99.90
582;DHT22;277;50.074;8.436;2022-11-20T09:24:13;4.70;99.90
582;DHT22;277;50.074;8.436;2022-11-20T09:26:41;4.70;99.90
582;DHT22;277;50.074;8.436;2022-11-20T09:29:08;4.70;99.90
582;DHT22;277;50.074;8.436;2022-11-20T09:31:37;4.70;99.90
582;DHT22;277;50.074;8.436;2022-11-20T09:34:04;4.80;99.90
582;DHT22;277;50.074;8.436;2022-11-20T09:36:32;4.90;99.90
582;DHT22;277;50.074;8.436;2022-11-20T09:39:00;4.90;99.90
582;DHT22;277;50.074;8.436;2022-11-20T09:41:42;5.00;99.90
582;DHT22;277;50.074;8.436;2022-11-20T09:44:18;5.00;99.90
582;DHT22;277;50.074;8.436;2022-11-20T09:46:49;5.00;99.90
582;DHT22;277;50.074;8.436;2022-11-20T09:49:23;5.00;99.90
582;DHT22;277;50.074;8.436;2022-11-20T09:51:58;5.00;99.90
582;DHT22;277;50.074;8.436;2022-11-20T09:54:27;5.10;99.90
582;DHT22;277;50.074;8.436;2022-11-20T09:56:58;5.20;99.90
582;DHT22;277;50.074;8.436;2022-11-20T09:59:29;5.10;99.90
582;DHT22;277;50.074;8.436;2022-11-20T10:01:59;5.10;99.90
582;DHT22;277;50.074;8.436;2022-11-20T10:04:29;5.10;99.90
582;DHT22;277;50.074;8.436;2022-11-20T10:07:04;5.20;99.90
582;DHT22;277;50.074;8.436;2022-11-20T10:09:54;5.10;99.90
582;DHT22;277;50.074;8.436;2022-11-20T10:12:26;4.90;99.90
582;DHT22;277;50.074;8.436;2022-11-20T10:15:00;4.70;99.90
582;DHT22;277;50.074;8.436;2022-11-20T10:17:39;4.70;99.90
582;DHT22;277;50.074;8.436;2022-11-20T10:20:15;4.70;99.90
582;DHT22;277;50.074;8.436;2022-11-20T10:22:47;4.70;99.90
582;DHT22;277;50.074;8.436;2022-11-20T10:25:17;4.60;99.90
582;DHT22;277;50.074;8.436;2022-11-20T10:27:54;4.70;99.90
582;DHT22;277;50.074;8.436;2022-11-20T10:30:23;4.70;99.90
582;DHT22;277;50.074;8.436;2022-11-20T10:32:52;4.60;99.90
582;DHT22;277;50.074;8.436;2022-11-20T10:35:22;4.70;99.90
582;DHT22;277;50.074;8.436;2022-11-20T10:37:53;4.60;99.90
582;DHT22;277;50.074;8.436;2022-11-20T10:40:23;4.70;99.90
582;DHT22;277;50.074;8.436;2022-11-20T10:42:55;4.80;99.90
582;DHT22;277;50.074;8.436;2022-11-20T10:45:35;4.70;99.90
582;DHT22;277;50.074;8.436;2022-11-20T10:48:10;4.70;99.90
582;DHT22;277;50.074;8.436;2022-11-20T10:50:40;4.60;99.90
582;DHT22;277;50.074;8.436;2022-11-20T10:53:14;4.60;99.90
582;DHT22;277;50.074;8.436;2022-11-20T10:55:46;4.70;99.90
582;DHT22;277;50.074;8.436;2022-11-20T10:58:19;4.70;99.90
582;DHT22;277;50.074;8.436;2022-11-20T11:00:48;4.70;99.90
582;DHT22;277;50.074;8.436;2022-11-20T11:03:20;4.70;99.90
582;DHT22;277;50.074;8.436;2022-11-20T11:05:50;4.70;99.90
582;DHT22;277;50.074;8.436;2022-11-20T11:08:18;4.70;99.90
582;DHT22;277;50.074;8.436;2022-11-20T11:10:47;4.70;99.90
582;DHT22;277;50.074;8.436;2022-11-20T11:13:20;4.80;99.90
582;DHT22;277;50.074;8.436;2022-11-20T11:15:48;4.90;99.90
582;DHT22;277;50.074;8.436;2022-11-20T11:18:23;5.00;99.90
582;DHT22;277;50.074;8.436;2022-11-20T11:20:52;5.00;99.90
582;DHT22;277;50.074;8.436;2022-11-20T11:23:30;5.00;99.90
582;DHT22;277;50.074;8.436;2022-11-20T11:26:00;5.10;99.90
582;DHT22;277;50.074;8.436;2022-11-20T11:28:29;5.10;99.90
582;DHT22;277;50.074;8.436;2022-11-20T11:30:57;5.20;99.90
582;DHT22;277;50.074;8.436;2022-11-20T11:33:25;5.20;99.90
582;DHT22;277;50.074;8.436;2022-11-20T11:35:54;5.30;99.90
582;DHT22;277;50.074;8.436;2022-11-20T11:38:27;5.20;99.90
582;DHT22;277;50.074;8.436;2022-11-20T11:40:56;5.10;99.90
582;DHT22;277;50.074;8.436;2022-11-20T11:43:24;5.00;99.90
582;DHT22;277;50.074;8.436;2022-11-20T11:46:23;5.20;99.90
582;DHT22;277;50.074;8.436;2022-11-20T11:48:55;5.30;99.90
582;DHT22;277;50.074;8.436;2022-11-20T11:51:24;5.30;99.90
582;DHT22;277;50.074;8.436;2022-11-20T11:53:55;5.30;99.90
582;DHT22;277;50.074;8.436;2022-11-20T11:56:24;5.40;99.90
582;DHT22;277;50.074;8.436;2022-11-20T11:58:51;5.50;99.90
582;DHT22;277;50.074;8.436;2022-11-20T12:01:24;5.50;99.90
582;DHT22;277;50.074;8.436;2022-11-20T12:03:55;5.60;99.90
582;DHT22;277;50.074;8.436;2022-11-20T12:06:26;5.70;99.90
582;DHT22;277;50.074;8.436;2022-11-20T12:08:58;5.90;99.90
582;DHT22;277;50.074;8.436;2022-11-20T12:11:30;5.90;99.90
582;DHT22;277;50.074;8.436;2022-11-20T12:14:00;5.90;99.90
582;DHT22;277;50.074;8.436;2022-11-20T12:16:32;6.00;99.90
582;DHT22;277;50.074;8.436;2022-11-20T12:19:02;6.00;99.90
582;DHT22;277;50.074;8.436;2022-11-20T12:21:35;6.20;99.90
582;DHT22;277;50.074;8.436;2022-11-20T12:24:09;6.30;99.90
582;DHT22;277;50.074;8.436;2022-11-20T12:26:44;6.40;99.90
582;DHT22;277;50.074;8.436;2022-11-20T12:29:17;6.40;99.90
582;DHT22;277;50.074;8.436;2022-11-20T12:31:55;6.40;99.90
582;DHT22;277;50.074;8.436;2022-11-20T12:34:31;6.30;99.90
582;DHT22;277;50.074;8.436;2022-11-20T12:37:04;6.10;99.90
582;DHT22;277;50.074;8.436;2022-11-20T12:39:39;6.20;99.90
582;DHT22;277;50.074;8.436;2022-11-20T12:42:20;6.30;99.90
582;DHT22;277;50.074;8.436;2022-11-20T12:48:21;6.10;99.90
582;DHT22;277;50.074;8.436;2022-11-20T12:50:51;6.20;99.90
582;DHT22;277;50.074;8.436;2022-11-20T12:53:42;6.20;99.90
582;DHT22;277;50.074;8.436;2022-11-20T12:56:15;6.00;99.90
582;DHT22;277;50.074;8.436;2022-11-20T12:58:49;5.90;99.90
582;DHT22;277;50.074;8.436;2022-11-20T13:01:24;5.70;99.90
582;DHT22;277;50.074;8.436;2022-11-20T13:04:18;5.70;99.90
582;DHT22;277;50.074;8.436;2022-11-20T13:06:52;5.70;99.90
582;DHT22;277;50.074;8.436;2022-11-20T13:09:20;5.80;99.90
582;DHT22;277;50.074;8.436;2022-11-20T13:11:50;5.70;99.90
582;DHT22;277;50.074;8.436;2022-11-20T13:14:24;5.80;99.90
582;DHT22;277;50.074;8.436;2022-11-20T13:16:54;5.80;99.90
582;DHT22;277;50.074;8.436;2022-11-20T13:19:31;5.80;99.90
582;DHT22;277;50.074;8.436;2022-11-20T13:22:00;5.80;99.90
582;DHT22;277;50.074;8.436;2022-11-20T13:24:28;5.80;99.90
582;DHT22;277;50.074;8.436;2022-11-20T13:27:00;5.60;99.90
582;DHT22;277;50.074;8.436;2022-11-20T13:29:28;5.60;99.90
582;DHT22;277;50.074;8.436;2022-11-20T13:32:03;5.60;99.90
582;DHT22;277;50.074;8.436;2022-11-20T13:34:35;5.50;99.90
582;DHT22;277;50.074;8.436;2022-11-20T13:37:03;5.50;99.90
582;DHT22;277;50.074;8.436;2022-11-20T13:39:32;5.40;99.90
582;DHT22;277;50.074;8.436;2022-11-20T13:42:00;5.40;99.90
582;DHT22;277;50.074;8.436;2022-11-20T13:44:30;5.30;99.90
582;DHT22;277;50.074;8.436;2022-11-20T13:47:00;5.30;99.90
582;DHT22;277;50.074;8.436;2022-11-20T13:49:30;5.30;99.90
582;DHT22;277;50.074;8.436;2022-11-20T13:52:04;5.20;99.90
582;DHT22;277;50.074;8.436;2022-11-20T13:54:49;5.30;99.90
582;DHT22;277;50.074;8.436;2022-11-20T13:57:30;5.30;99.90
582;DHT22;277;50.074;8.436;2022-11-20T14:00:03;5.50;99.90
582;DHT22;277;50.074;8.436;2022-11-20T14:02:33;5.50;99.90
582;DHT22;277;50.074;8.436;2022-11-20T14:05:00;5.60;99.90
582;DHT22;277;50.074;8.436;2022-11-20T14:07:35;5.70;99.90
582;DHT22;277;50.074;8.436;2022-11-20T14:10:03;5.80;99.90
582;DHT22;277;50.074;8.436;2022-11-20T14:12:32;5.80;99.90
582;DHT22;277;50.074;8.436;2022-11-20T14:15:00;5.80;99.90
582;DHT22;277;50.074;8.436;2022-11-20T14:17:29;5.70;99.90
582;DHT22;277;50.074;8.436;2022-11-20T14:20:00;5.70;99.90
582;DHT22;277;50.074;8.436;2022-11-20T14:22:29;5.80;99.90
582;DHT22;277;50.074;8.436;2022-11-20T14:25:03;6.00;99.90
582;DHT22;277;50.074;8.436;2022-11-20T14:27:32;6.00;99.90
582;DHT22;277;50.074;8.436;2022-11-20T14:30:00;5.90;99.90
582;DHT22;277;50.074;8.436;2022-11-20T14:32:29;6.00;99.90
582;DHT22;277;50.074;8.436;2022-11-20T14:34:58;6.00;99.90
582;DHT22;277;50.074;8.436;2022-11-20T14:37:29;6.00;99.90
582;DHT22;277;50.074;8.436;2022-11-20T14:40:02;6.00;99.90
582;DHT22;277;50.074;8.436;2022-11-20T14:42:32;6.00;99.90
582;DHT22;277;50.074;8.436;2022-11-20T14:45:01;6.10;99.90
582;DHT22;277;50.074;8.436;2022-11-20T14:47:29;6.10;99.90
582;DHT22;277;50.074;8.436;2022-11-20T14:49:58;6.10;99.90
582;DHT22;277;50.074;8.436;2022-11-20T14:52:32;6.10;99.90
582;DHT22;277;50.074;8.436;2022-11-20T14:55:00;6.00;99.90
582;DHT22;277;50.074;8.436;2022-11-20T14:57:30;6.10;99.90
582;DHT22;277;50.074;8.436;2022-11-20T15:00:05;6.10;99.90
582;DHT22;277;50.074;8.436;2022-11-20T15:02:33;6.10;99.90
582;DHT22;277;50.074;8.436;2022-11-20T15:05:01;6.10;99.90
582;DHT22;277;50.074;8.436;2022-11-20T15:07:30;6.10;99.90
582;DHT22;277;50.074;8.436;2022-11-20T15:09:59;6.10;99.90
582;DHT22;277;50.074;8.436;2022-11-20T15:12:27;6.10;99.90
582;DHT22;277;50.074;8.436;2022-11-20T15:14:56;6.00;99.90
582;DHT22;277;50.074;8.436;2022-11-20T15:17:23;6.00;99.90
582;DHT22;277;50.074;8.436;2022-11-20T15:19:52;6.00;99.90
582;DHT22;277;50.074;8.436;2022-11-20T15:22:20;6.00;99.90
582;DHT22;277;50.074;8.436;2022-11-20T15:24:48;5.90;99.90
582;DHT22;277;50.074;8.436;2022-11-20T15:27:15;5.90;99.90
582;DHT22;277;50.074;8.436;2022-11-20T15:29:43;6.00;99.90
582;DHT22;277;50.074;8.436;2022-11-20T15:32:20;6.00;99.90
582;DHT22;277;50.074;8.436;2022-11-20T15:34:48;5.90;99.90
582;DHT22;277;50.074;8.436;2022-11-20T15:37:15;6.00;99.90
582;DHT22;277;50.074;8.436;2022-11-20T15:39:43;6.00;99.90
582;DHT22;277;50.074;8.436;2022-11-20T15:42:11;6.00;99.90
582;DHT22;277;50.074;8.436;2022-11-20T15:44:39;6.00;99.90
582;DHT22;277;50.074;8.436;2022-11-20T15:47:06;6.00;99.90
582;DHT22;277;50.074;8.436;2022-11-20T15:49:37;6.00;99.90
582;DHT22;277;50.074;8.436;2022-11-20T15:52:05;6.10;99.90
582;DHT22;277;50.074;8.436;2022-11-20T15:54:32;6.20;99.90
582;DHT22;277;50.074;8.436;2022-11-20T15:57:00;6.20;99.90
582;DHT22;277;50.074;8.436;2022-11-20T15:59:29;6.20;99.90
582;DHT22;277;50.074;8.436;2022-11-20T16:01:57;6.20;99.90
582;DHT22;277;50.074;8.436;2022-11-20T16:04:25;6.10;99.90
582;DHT22;277;50.074;8.436;2022-11-20T16:06:54;6.10;99.90
582;DHT22;277;50.074;8.436;2022-11-20T16:09:22;6.20;99.90
582;DHT22;277;50.074;8.436;2022-11-20T16:11:50;6.20;99.90
582;DHT22;277;50.074;8.436;2022-11-20T16:14:18;6.20;99.90
582;DHT22;277;50.074;8.436;2022-11-20T16:17:03;6.20;99.90
582;DHT22;277;50.074;8.436;2022-11-20T16:19:30;6.20;99.90
582;DHT22;277;50.074;8.436;2022-11-20T16:22:00;6.20;99.90
582;DHT22;277;50.074;8.436;2022-11-20T16:24:29;6.20;99.90
582;DHT22;277;50.074;8.436;2022-11-20T16:26:57;6.30;99.90
582;DHT22;277;50.074;8.436;2022-11-20T16:29:24;6.30;99.90
582;DHT22;277;50.074;8.436;2022-11-20T16:31:52;6.30;99.90
582;DHT22;277;50.074;8.436;2022-11-20T16:34:20;6.30;99.90
582;DHT22;277;50.074;8.436;2022-11-20T16:36:47;6.30;99.90
582;DHT22;277;50.074;8.436;2022-11-20T16:39:16;6.30;99.90
582;DHT22;277;50.074;8.436;2022-11-20T16:41:49;6.30;99.90
582;DHT22;277;50.074;8.436;2022-11-20T16:44:17;6.30;99.90
582;DHT22;277;50.074;8.436;2022-11-20T16:46:44;6.30;99.90
582;DHT22;277;50.074;8.436;2022-11-20T16:49:12;6.30;99.90
582;DHT22;277;50.074;8.436;2022-11-20T16:51:40;6.30;99.90
582;DHT22;277;50.074;8.436;2022-11-20T16:54:08;6.20;99.90
582;DHT22;277;50.074;8.436;2022-11-20T16:56:41;6.30;99.90
582;DHT22;277;50.074;8.436;2022-11-20T16:59:09;6.30;99.90
582;DHT22;277;50.074;8.436;2022-11-20T17:01:37;6.30;99.90
582;DHT22;277;50.074;8.436;2022-11-20T17:04:07;6.30;99.90
582;DHT22;277;50.074;8.436;2022-11-20T17:06:35;6.30;99.90
582;DHT22;277;50.074;8.436;2022-11-20T17:09:03;6.30;99.90
582;DHT22;277;50.074;8.436;2022-11-20T17:11:31;6.30;99.90
582;DHT22;277;50.074;8.436;2022-11-20T17:14:01;6.30;99.90